createdAt,value
2018-07-16T00:01:12.732Z,12.50
2018-07-16T00:02:44.300Z,13.80
2018-07-16T00:04:15.872Z,14.30
2018-07-16T00:05:47.643Z,12.90
2018-07-16T00:07:19.014Z,14.80
2018-07-16T00:08:50.586Z,13.20
2018-07-16T00:10:22.156Z,13.10
2018-07-16T00:11:53.828Z,14.60
2018-07-16T00:13:25.298Z,14.60
2018-07-16T00:14:56.870Z,12.90
2018-07-16T00:16:28.441Z,14.80
2018-07-16T00:18:00.112Z,15.40
2018-07-16T00:19:31.584Z,15.20
2018-07-16T00:21:03.154Z,14.40
2018-07-16T00:22:34.726Z,14.00
2018-07-16T00:24:06.397Z,14.50
2018-07-16T00:25:37.868Z,16.00
2018-07-16T00:27:09.447Z,18.90
2018-07-16T00:28:41.010Z,20.10
2018-07-16T00:30:12.682Z,19.10
2018-07-16T00:31:44.152Z,14.50
2018-07-16T00:33:15.724Z,15.50
2018-07-16T00:34:47.333Z,24.70
2018-07-16T00:36:18.866Z,19.20
2018-07-16T00:37:50.436Z,18.90
2018-07-16T00:39:22.257Z,19.40
2018-07-16T00:40:53.578Z,19.10
2018-07-16T00:42:25.350Z,20.50
2018-07-16T00:43:56.721Z,19.80
2018-07-16T00:45:28.292Z,21.10
2018-07-16T00:46:59.862Z,22.50
2018-07-16T00:48:31.433Z,20.20
2018-07-16T00:50:03.006Z,24.70
2018-07-16T00:51:34.576Z,18.60
2018-07-16T00:53:06.147Z,25.30
2018-07-16T00:54:37.717Z,21.80
2018-07-16T00:56:09.288Z,22.20
2018-07-16T00:57:40.859Z,27.90
2018-07-16T00:59:12.430Z,24.10
2018-07-16T01:00:44.101Z,24.80
2018-07-16T01:02:15.572Z,28.70
2018-07-16T01:03:47.143Z,24.10
2018-07-16T01:05:18.715Z,28.60
2018-07-16T01:06:50.286Z,31.20
2018-07-16T01:08:21.855Z,27.10
2018-07-16T01:09:53.426Z,25.20
2018-07-16T01:11:24.997Z,31.80
2018-07-16T01:12:56.669Z,29.30
2018-07-16T01:14:28.139Z,23.90
2018-07-16T01:15:59.709Z,29.40
2018-07-16T01:17:31.280Z,34.90
2018-07-16T01:19:02.951Z,27.40
2018-07-16T01:20:34.421Z,26.60
2018-07-16T01:22:05.993Z,27.90
2018-07-16T01:23:37.563Z,28.30
2018-07-16T01:25:09.133Z,28.60
2018-07-16T01:26:40.703Z,29.20
2018-07-16T01:28:12.274Z,27.80
2018-07-16T01:29:43.845Z,28.00
2018-07-16T01:31:15.416Z,26.80
2018-07-16T01:32:46.986Z,25.30
2018-07-16T01:34:18.557Z,25.60
2018-07-16T01:35:50.127Z,26.30
2018-07-16T01:37:21.898Z,30.90
2018-07-16T01:38:53.271Z,29.30
2018-07-16T01:40:24.839Z,43.00
2018-07-16T01:41:56.409Z,31.00
2018-07-16T01:43:27.980Z,30.70
2018-07-16T01:44:59.550Z,29.40
2018-07-16T01:46:31.121Z,31.60
2018-07-16T01:48:02.691Z,36.30
2018-07-16T01:49:34.261Z,34.60
2018-07-16T01:51:05.833Z,28.30
2018-07-16T01:52:37.402Z,30.40
2018-07-16T01:54:08.973Z,29.80
2018-07-16T01:55:40.643Z,31.80
2018-07-16T01:57:12.115Z,31.00
2018-07-16T01:58:43.684Z,34.40
2018-07-16T02:00:15.255Z,32.90
2018-07-16T02:01:46.826Z,31.20
2018-07-16T02:03:18.396Z,30.60
2018-07-16T02:04:49.965Z,31.20
2018-07-16T02:06:21.536Z,33.40
2018-07-16T02:07:53.357Z,28.80
2018-07-16T02:09:24.677Z,38.20
2018-07-16T02:10:56.247Z,43.20
2018-07-16T02:12:27.816Z,36.50
2018-07-16T02:13:59.487Z,39.90
2018-07-16T02:15:30.958Z,34.60
2018-07-16T02:17:02.528Z,46.10
2018-07-16T02:18:34.098Z,43.50
2018-07-16T02:20:05.667Z,45.50
2018-07-16T02:21:37.238Z,50.00
2018-07-16T02:23:08.807Z,56.70
2018-07-16T02:24:40.377Z,53.50
2018-07-16T02:26:11.948Z,50.90
2018-07-16T02:27:43.518Z,47.70
2018-07-16T02:29:15.094Z,53.90
2018-07-16T02:30:46.659Z,56.70
2018-07-16T02:32:18.490Z,54.20
2018-07-16T02:33:49.798Z,50.00
2018-07-16T02:35:21.369Z,44.90
2018-07-16T02:36:52.940Z,54.30
2018-07-16T02:38:24.766Z,50.40
2018-07-16T02:39:56.204Z,64.70
2018-07-16T02:41:27.648Z,57.90
2018-07-16T02:42:59.229Z,49.30
2018-07-16T02:44:30.795Z,51.70
2018-07-16T02:46:02.367Z,53.90
2018-07-16T02:47:33.928Z,58.80
2018-07-16T02:49:05.499Z,59.50
2018-07-16T02:50:37.170Z,54.00
2018-07-16T02:52:08.639Z,53.70
2018-07-16T02:53:40.210Z,53.50
2018-07-16T02:55:11.779Z,61.30
2018-07-16T02:56:43.349Z,61.10
2018-07-16T02:58:14.919Z,65.60
2018-07-16T02:59:46.491Z,56.60
2018-07-16T03:01:18.058Z,53.80
2018-07-16T03:02:49.730Z,70.90
2018-07-16T03:04:21.199Z,60.70
2018-07-16T03:05:52.768Z,59.70
2018-07-16T03:07:24.339Z,66.90
2018-07-16T03:08:56.262Z,60.30
2018-07-16T03:10:27.481Z,58.80
2018-07-16T03:11:59.048Z,67.40
2018-07-16T03:13:30.620Z,62.00
2018-07-16T03:15:02.189Z,62.70
2018-07-16T03:16:33.760Z,74.00
2018-07-16T03:18:05.467Z,76.00
2018-07-16T03:19:36.897Z,62.20
2018-07-16T03:21:08.467Z,70.10
2018-07-16T03:22:40.040Z,57.10
2018-07-16T03:24:11.617Z,61.70
2018-07-16T03:25:43.176Z,60.50
2018-07-16T03:27:14.851Z,59.80
2018-07-16T03:28:46.316Z,69.80
2018-07-16T03:30:17.885Z,58.40
2018-07-16T03:31:49.456Z,61.90
2018-07-16T03:33:21.124Z,73.70
2018-07-16T03:34:52.593Z,72.80
2018-07-16T03:36:24.163Z,74.20
2018-07-16T03:37:55.733Z,61.40
2018-07-16T03:39:27.553Z,66.30
2018-07-16T03:40:58.872Z,77.40
2018-07-16T03:42:30.442Z,59.40
2018-07-16T03:44:02.011Z,62.00
2018-07-16T03:45:33.681Z,83.20
2018-07-16T03:47:05.151Z,77.60
2018-07-16T03:48:36.720Z,72.70
2018-07-16T03:50:08.290Z,67.30
2018-07-16T03:51:39.859Z,62.80
2018-07-16T03:53:11.428Z,69.60
2018-07-16T03:54:42.998Z,70.40
2018-07-16T03:56:15.119Z,66.00
2018-07-16T03:57:46.287Z,64.20
2018-07-16T03:59:17.706Z,75.20
2018-07-16T04:00:49.282Z,68.70
2018-07-16T04:02:20.846Z,68.00
2018-07-16T04:03:52.515Z,70.10
2018-07-16T04:05:23.984Z,74.90
2018-07-16T04:06:55.554Z,74.80
2018-07-16T04:08:27.124Z,73.30
2018-07-16T04:09:58.943Z,68.20
2018-07-16T04:11:30.261Z,73.80
2018-07-16T04:13:01.831Z,65.20
2018-07-16T04:14:33.401Z,64.40
2018-07-16T04:16:04.971Z,73.00
2018-07-16T04:17:36.539Z,72.60
2018-07-16T04:19:08.108Z,66.90
2018-07-16T04:20:39.677Z,67.70
2018-07-16T04:22:11.447Z,76.10
2018-07-16T04:23:42.816Z,63.40
2018-07-16T04:25:14.385Z,64.90
2018-07-16T04:26:45.955Z,66.80
2018-07-16T04:28:17.524Z,66.40
2018-07-16T04:29:49.094Z,74.00
2018-07-16T04:31:20.665Z,72.60
2018-07-16T04:32:52.232Z,68.00
2018-07-16T04:34:23.901Z,70.00
2018-07-16T04:35:55.369Z,71.90
2018-07-16T04:37:26.939Z,66.00
2018-07-16T04:38:58.507Z,65.90
2018-07-16T04:40:30.427Z,65.30
2018-07-16T04:42:01.646Z,70.60
2018-07-16T04:43:33.215Z,68.80
2018-07-16T04:45:04.789Z,69.10
2018-07-16T04:46:36.354Z,72.90
2018-07-16T04:48:07.922Z,65.40
2018-07-16T04:49:39.491Z,75.10
2018-07-16T04:51:11.060Z,71.90
2018-07-16T04:52:42.628Z,71.00
2018-07-16T04:54:14.198Z,75.40
2018-07-16T04:55:45.767Z,68.40
2018-07-16T04:57:17.336Z,78.10
2018-07-16T04:58:49.005Z,94.60
2018-07-16T05:00:20.473Z,64.60
2018-07-16T05:01:52.043Z,70.50
2018-07-16T05:03:23.617Z,76.50
2018-07-16T05:04:55.181Z,67.30
2018-07-16T05:06:26.749Z,75.70
2018-07-16T05:07:58.319Z,88.30
2018-07-16T05:09:29.888Z,86.30
2018-07-16T05:11:01.460Z,69.80
2018-07-16T05:12:33.025Z,100.20
2018-07-16T05:14:04.594Z,72.90
2018-07-16T05:15:36.163Z,103.40
2018-07-16T05:17:07.832Z,84.90
2018-07-16T05:18:39.300Z,76.70
2018-07-16T05:20:10.873Z,80.10
2018-07-16T05:21:42.441Z,79.60
2018-07-16T05:23:14.007Z,81.40
2018-07-16T05:24:45.576Z,87.80
2018-07-16T05:26:17.149Z,89.50
2018-07-16T05:27:48.713Z,85.90
2018-07-16T05:29:20.282Z,84.30
2018-07-16T05:30:51.853Z,91.40
2018-07-16T05:32:23.635Z,83.30
2018-07-16T05:33:54.989Z,75.90
2018-07-16T05:35:27.009Z,86.00
2018-07-16T05:36:58.127Z,90.00
2018-07-16T05:38:29.695Z,83.30
2018-07-16T05:40:01.266Z,87.40
2018-07-16T05:41:32.832Z,88.10
2018-07-16T05:43:04.402Z,86.20
2018-07-16T05:44:35.971Z,88.50
2018-07-16T05:46:07.539Z,89.70
2018-07-16T05:47:39.109Z,87.90
2018-07-16T05:49:10.677Z,90.40
2018-07-16T05:50:42.245Z,91.80
2018-07-16T05:52:13.814Z,95.80
2018-07-16T05:53:45.483Z,82.50
2018-07-16T05:55:16.951Z,98.50
2018-07-16T05:56:48.520Z,95.10
2018-07-16T05:58:20.188Z,82.50
2018-07-16T05:59:51.658Z,85.80
2018-07-16T06:01:23.230Z,81.40
2018-07-16T06:02:54.795Z,89.10
2018-07-16T06:04:26.367Z,90.80
2018-07-16T06:05:58.033Z,85.90
2018-07-16T06:07:29.501Z,86.30
2018-07-16T06:09:01.070Z,101.10
2018-07-16T06:10:32.638Z,100.40
2018-07-16T06:12:04.558Z,86.20
2018-07-16T06:13:35.776Z,87.60
2018-07-16T06:15:07.345Z,95.40
2018-07-16T06:16:38.918Z,96.30
2018-07-16T06:18:10.481Z,94.10
2018-07-16T06:19:42.050Z,90.00
2018-07-16T06:21:13.621Z,95.90
2018-07-16T06:22:45.187Z,93.60
2018-07-16T06:24:16.906Z,97.10
2018-07-16T06:25:48.325Z,95.30
2018-07-16T06:27:19.893Z,99.60
2018-07-16T06:28:51.461Z,100.40
2018-07-16T06:30:23.129Z,97.30
2018-07-16T06:31:54.598Z,104.20
2018-07-16T06:33:26.166Z,103.20
2018-07-16T06:34:57.735Z,106.00
2018-07-16T06:36:29.404Z,119.80
2018-07-16T06:38:00.871Z,111.00
2018-07-16T06:39:32.494Z,104.20
2018-07-16T06:41:04.080Z,102.50
2018-07-16T06:42:35.826Z,97.30
2018-07-16T06:44:07.144Z,108.10
2018-07-16T06:45:38.713Z,93.50
2018-07-16T06:47:10.281Z,105.60
2018-07-16T06:48:41.950Z,114.30
2018-07-16T06:50:13.420Z,102.00
2018-07-16T06:51:45.056Z,72.80
2018-07-16T06:53:16.624Z,79.20
2018-07-16T06:54:48.394Z,103.60
2018-07-16T06:56:19.762Z,92.90
2018-07-16T06:57:51.333Z,97.70
2018-07-16T06:59:22.898Z,91.60
2018-07-16T07:00:54.466Z,82.10
2018-07-16T07:02:26.069Z,88.80
2018-07-16T07:03:57.548Z,98.80
2018-07-16T07:05:29.117Z,111.40
2018-07-16T07:07:00.785Z,113.00
2018-07-16T07:08:32.253Z,116.90
2018-07-16T07:10:03.834Z,119.50
2018-07-16T07:11:35.391Z,130.30
2018-07-16T07:13:07.208Z,122.40
2018-07-16T07:14:38.526Z,122.50
2018-07-16T07:16:10.094Z,117.10
2018-07-16T07:17:41.662Z,121.40
2018-07-16T07:19:13.230Z,113.30
2018-07-16T07:20:44.798Z,105.00
2018-07-16T07:22:16.366Z,115.00
2018-07-16T07:23:47.934Z,95.40
2018-07-16T07:25:19.891Z,88.30
2018-07-16T07:26:51.071Z,96.90
2018-07-16T07:28:22.640Z,93.20
2018-07-16T07:29:54.208Z,101.70
2018-07-16T07:31:25.777Z,99.10
2018-07-16T07:32:57.344Z,114.30
2018-07-16T07:34:28.913Z,128.00
2018-07-16T07:36:00.506Z,125.00
2018-07-16T07:37:32.149Z,141.70
2018-07-16T07:39:03.617Z,125.00
2018-07-16T07:40:35.187Z,148.40
2018-07-16T07:42:06.757Z,130.40
2018-07-16T07:43:38.673Z,142.40
2018-07-16T07:45:09.890Z,147.50
2018-07-16T07:46:41.460Z,128.50
2018-07-16T07:48:13.027Z,127.80
2018-07-16T07:49:44.599Z,152.10
2018-07-16T07:51:16.164Z,136.00
2018-07-16T07:52:47.746Z,126.60
2018-07-16T07:54:19.461Z,113.10
2018-07-16T07:55:51.018Z,133.00
2018-07-16T07:57:22.436Z,125.00
2018-07-16T07:58:54.005Z,136.10
2018-07-16T08:00:25.573Z,137.60
2018-07-16T08:01:57.241Z,147.50
2018-07-16T08:03:28.785Z,161.70
2018-07-16T08:05:00.278Z,164.10
2018-07-16T08:06:31.845Z,178.80
2018-07-16T08:08:03.513Z,163.80
2018-07-16T08:09:34.980Z,163.70
2018-07-16T08:11:06.552Z,155.90
2018-07-16T08:12:38.118Z,165.20
2018-07-16T08:14:09.935Z,165.00
2018-07-16T08:15:41.252Z,144.60
2018-07-16T08:17:12.821Z,117.10
2018-07-16T08:18:44.391Z,100.90
2018-07-16T08:20:16.057Z,120.00
2018-07-16T08:21:47.525Z,125.70
2018-07-16T08:23:19.097Z,115.30
2018-07-16T08:24:50.669Z,118.20
2018-07-16T08:26:22.230Z,111.40
2018-07-16T08:27:53.798Z,111.20
2018-07-16T08:29:25.371Z,110.80
2018-07-16T08:30:56.935Z,101.10
2018-07-16T08:32:28.504Z,105.00
2018-07-16T08:34:00.073Z,97.90
2018-07-16T08:35:31.640Z,99.10
2018-07-16T08:37:03.209Z,99.70
2018-07-16T08:38:34.981Z,97.10
2018-07-16T08:40:06.347Z,99.50
2018-07-16T08:41:37.916Z,100.10
2018-07-16T08:43:09.483Z,94.00
2018-07-16T08:44:41.052Z,101.20
2018-07-16T08:46:12.673Z,111.00
2018-07-16T08:47:44.190Z,118.40
2018-07-16T08:49:15.758Z,117.30
2018-07-16T08:50:47.327Z,105.90
2018-07-16T08:52:18.896Z,124.20
2018-07-16T08:53:50.464Z,120.70
2018-07-16T08:55:22.032Z,120.10
2018-07-16T08:56:53.701Z,127.10
2018-07-16T08:58:25.169Z,119.20
2018-07-16T08:59:56.740Z,122.60
2018-07-16T09:01:28.305Z,126.20
2018-07-16T09:03:00.029Z,138.40
2018-07-16T09:04:31.442Z,153.50
2018-07-16T09:06:03.010Z,164.10
2018-07-16T09:07:34.578Z,160.90
2018-07-16T09:09:06.146Z,170.20
2018-07-16T09:10:37.715Z,163.80
2018-07-16T09:12:09.282Z,156.60
2018-07-16T09:13:41.011Z,162.30
2018-07-16T09:15:12.518Z,160.80
2018-07-16T09:16:44.054Z,159.90
2018-07-16T09:18:15.554Z,150.90
2018-07-16T09:19:47.125Z,165.00
2018-07-16T09:21:18.690Z,161.60
2018-07-16T09:22:50.257Z,168.00
2018-07-16T09:24:21.825Z,170.10
2018-07-16T09:25:53.393Z,154.60
2018-07-16T09:27:24.961Z,170.20
2018-07-16T09:28:56.539Z,174.10
2018-07-16T09:30:28.097Z,153.00
2018-07-16T09:31:59.665Z,161.90
2018-07-16T09:33:31.333Z,163.60
2018-07-16T09:35:02.805Z,161.10
2018-07-16T09:36:34.369Z,168.00
2018-07-16T09:38:05.938Z,162.70
2018-07-16T09:39:37.654Z,174.60
2018-07-16T09:41:09.072Z,160.30
2018-07-16T09:42:40.686Z,158.90
2018-07-16T09:44:12.207Z,182.30
2018-07-16T09:45:43.775Z,163.00
2018-07-16T09:47:15.343Z,182.30
2018-07-16T09:48:46.910Z,180.10
2018-07-16T09:50:18.640Z,152.70
2018-07-16T09:51:50.146Z,167.90
2018-07-16T09:53:21.715Z,149.90
2018-07-16T09:54:53.181Z,149.60
2018-07-16T09:56:24.915Z,165.90
2018-07-16T09:57:56.640Z,171.20
2018-07-16T09:59:27.884Z,156.10
2018-07-16T10:00:59.453Z,149.30
2018-07-16T10:02:31.020Z,154.70
2018-07-16T10:04:02.839Z,159.70
2018-07-16T10:07:06.453Z,161.30
2018-07-16T10:08:37.524Z,160.40
2018-07-16T10:10:08.959Z,149.10
2018-07-16T10:11:40.438Z,146.80
2018-07-16T10:13:11.996Z,176.80
2018-07-16T10:16:15.518Z,149.20
2018-07-16T10:17:46.703Z,126.00
2018-07-16T10:19:18.455Z,138.00
2018-07-16T10:20:49.842Z,120.60
2018-07-16T10:22:21.414Z,128.70
2018-07-16T10:23:52.980Z,134.80
2018-07-16T10:25:24.555Z,114.00
2018-07-16T10:26:56.348Z,120.90
2018-07-16T10:28:27.806Z,106.50
2018-07-16T10:31:30.835Z,105.90
2018-07-16T10:33:02.710Z,107.80
2018-07-16T10:36:05.578Z,91.30
2018-07-16T10:37:37.122Z,97.60
2018-07-16T10:39:08.843Z,96.40
2018-07-16T10:40:40.272Z,89.70
2018-07-16T10:43:44.248Z,90.20
2018-07-16T10:45:14.986Z,80.20
2018-07-16T10:48:18.184Z,77.10
2018-07-16T10:49:49.860Z,78.10
2018-07-16T10:51:21.283Z,76.70
2018-07-16T10:52:52.868Z,76.40
2018-07-16T10:54:24.579Z,76.20
2018-07-16T10:55:56.161Z,76.70
2018-07-16T10:57:27.733Z,68.90
2018-07-16T10:58:59.155Z,74.00
2018-07-16T11:00:31.261Z,71.40
2018-07-16T11:02:03.450Z,69.20
2018-07-16T11:03:34.189Z,68.70
2018-07-16T11:05:05.659Z,69.10
2018-07-16T11:06:37.031Z,70.10
2018-07-16T11:08:08.608Z,68.00
2018-07-16T11:09:40.719Z,69.80
2018-07-16T11:12:43.338Z,65.10
2018-07-16T11:15:47.159Z,69.70
2018-07-16T11:17:18.069Z,65.90
2018-07-16T11:20:21.476Z,66.90
2018-07-16T11:21:53.072Z,65.90
2018-07-16T11:26:27.738Z,66.30
2018-07-16T11:27:59.529Z,68.70
2018-07-16T11:31:02.468Z,62.90
2018-07-16T11:32:33.844Z,66.80
2018-07-16T11:34:06.447Z,64.90
2018-07-16T11:35:37.364Z,64.40
2018-07-16T11:37:08.881Z,64.10
2018-07-16T11:40:11.962Z,64.10
2018-07-16T11:41:43.531Z,58.40
2018-07-16T11:43:14.931Z,62.40
2018-07-16T11:46:18.479Z,58.70
2018-07-16T11:47:49.861Z,60.70
2018-07-16T11:49:21.219Z,59.50
2018-07-16T11:50:52.798Z,58.10
2018-07-16T11:52:24.412Z,59.10
2018-07-16T11:53:55.955Z,59.10
2018-07-16T11:55:27.737Z,58.20
2018-07-16T11:56:59.147Z,58.10
2018-07-16T11:58:32.211Z,58.80
2018-07-16T12:01:33.879Z,52.60
2018-07-16T12:04:37.012Z,55.90
2018-07-16T12:06:08.592Z,55.00
2018-07-16T12:07:40.221Z,57.90
2018-07-16T12:09:11.764Z,52.50
2018-07-16T12:10:43.333Z,56.00
2018-07-16T12:12:14.979Z,53.00
2018-07-16T12:15:18.073Z,56.20
2018-07-16T12:18:21.537Z,51.60
2018-07-16T12:19:52.814Z,53.00
2018-07-16T12:21:24.838Z,52.90
2018-07-16T12:22:55.976Z,54.10
2018-07-16T12:26:00.352Z,56.10
2018-07-16T12:27:30.776Z,49.40
2018-07-16T12:30:33.913Z,55.50
2018-07-16T12:32:05.769Z,56.50
2018-07-16T12:33:37.043Z,52.60
2018-07-16T12:35:08.755Z,51.90
2018-07-16T12:36:40.290Z,53.50
2018-07-16T12:38:12.088Z,52.20
2018-07-16T12:39:43.531Z,48.40
2018-07-16T12:41:15.692Z,54.00
2018-07-16T12:42:46.533Z,54.90
2018-07-16T12:44:18.110Z,45.30
2018-07-16T12:45:49.717Z,51.70
2018-07-16T12:47:21.276Z,49.30
2018-07-16T12:48:52.856Z,47.30
2018-07-16T12:50:24.503Z,44.80
2018-07-16T12:53:27.604Z,47.30
2018-07-16T12:56:30.867Z,48.70
2018-07-16T12:58:02.351Z,46.90
2018-07-16T12:59:34.135Z,50.00
2018-07-16T13:02:37.191Z,49.80
2018-07-16T13:04:08.890Z,41.80
2018-07-16T13:05:40.569Z,41.30
2018-07-16T13:07:11.870Z,43.20
2018-07-16T13:10:15.015Z,45.90
2018-07-16T13:11:46.615Z,45.40
2018-07-16T13:13:18.920Z,48.30
2018-07-16T13:17:53.617Z,49.50
2018-07-16T13:19:24.510Z,45.80
2018-07-16T13:20:56.092Z,46.40
2018-07-16T13:22:27.678Z,46.10
2018-07-16T13:25:30.869Z,48.30
2018-07-16T13:27:02.429Z,44.30
2018-07-16T13:28:34.029Z,45.50
2018-07-16T13:30:05.592Z,47.50
2018-07-16T13:31:37.258Z,46.80
2018-07-16T13:33:08.811Z,44.90
2018-07-16T13:34:41.214Z,42.70
2018-07-16T13:36:11.924Z,44.50
2018-07-16T13:37:43.921Z,41.50
2018-07-16T13:39:15.396Z,43.80
2018-07-16T13:40:46.674Z,41.10
2018-07-16T13:42:18.462Z,43.50
2018-07-16T13:43:49.842Z,43.20
2018-07-16T13:45:21.426Z,45.00
2018-07-16T13:46:53.141Z,40.70
2018-07-16T13:48:24.854Z,40.90
2018-07-16T13:49:56.176Z,39.00
2018-07-16T13:51:27.961Z,38.40
2018-07-16T13:53:00.044Z,38.30
2018-07-16T13:54:30.928Z,39.30
2018-07-16T13:56:02.637Z,40.50
2018-07-16T13:57:34.096Z,36.00
2018-07-16T13:59:05.685Z,37.70
2018-07-16T14:00:37.272Z,38.40
2018-07-16T14:02:08.861Z,37.60
2018-07-16T14:03:40.974Z,40.30
2018-07-16T14:05:12.013Z,36.60
2018-07-16T14:06:43.600Z,34.30
2018-07-16T14:09:46.765Z,35.50
2018-07-16T14:11:18.349Z,35.20
2018-07-16T14:12:49.993Z,35.00
2018-07-16T14:14:21.518Z,32.60
2018-07-16T14:15:53.204Z,37.40
2018-07-16T14:17:26.325Z,35.60
2018-07-16T14:18:56.441Z,34.10
2018-07-16T14:20:28.423Z,33.20
2018-07-16T14:21:59.671Z,34.60
2018-07-16T14:23:31.655Z,31.50
2018-07-16T14:25:02.700Z,29.50
2018-07-16T14:26:34.194Z,29.50
2018-07-16T14:28:05.921Z,30.90
2018-07-16T14:29:37.364Z,30.20
2018-07-16T14:31:08.953Z,30.20
2018-07-16T14:32:40.744Z,29.20
2018-07-16T14:34:12.219Z,30.20
2018-07-16T14:35:43.703Z,30.00
2018-07-16T14:37:15.292Z,30.30
2018-07-16T14:38:47.077Z,32.40
2018-07-16T14:40:18.610Z,28.00
2018-07-16T14:41:50.045Z,27.30
2018-07-16T14:43:21.629Z,26.70
2018-07-16T14:44:53.293Z,30.70
2018-07-16T14:46:25.339Z,27.00
2018-07-16T14:47:56.387Z,26.40
2018-07-16T14:49:28.174Z,24.90
2018-07-16T14:50:59.557Z,25.10
2018-07-16T14:52:31.548Z,25.60
2018-07-16T14:54:02.728Z,24.20
2018-07-16T14:55:34.519Z,24.50
2018-07-16T14:57:05.967Z,21.10
2018-07-16T14:58:37.584Z,19.40
2018-07-16T15:00:09.273Z,18.10
2018-07-16T15:01:41.194Z,20.20
2018-07-16T15:03:13.425Z,18.80
2018-07-16T15:04:44.186Z,18.50
2018-07-16T15:07:47.202Z,19.40
2018-07-16T15:09:18.583Z,17.20
2018-07-16T15:10:50.398Z,18.00
2018-07-16T15:12:21.803Z,17.10
2018-07-16T15:13:53.567Z,19.60
2018-07-16T15:15:24.924Z,18.10
2018-07-16T15:16:56.510Z,17.40
2018-07-16T15:18:28.096Z,18.00
2018-07-16T15:19:59.826Z,13.70
2018-07-16T15:23:03.392Z,11.10
2018-07-16T15:24:34.979Z,5.20
2018-07-16T15:26:06.440Z,6.70
2018-07-16T15:27:37.611Z,6.40
2018-07-16T15:29:09.358Z,7.60
2018-07-16T15:35:15.937Z,9.40
2018-07-16T15:38:18.711Z,9.40
2018-07-16T15:39:50.414Z,10.90
2018-07-16T15:41:21.942Z,11.50
2018-07-16T15:42:54.053Z,10.90
2018-07-16T15:44:25.263Z,11.20
2018-07-16T15:45:56.945Z,11.80
2018-07-16T15:47:29.854Z,10.80
2018-07-16T15:48:59.840Z,10.80
2018-07-16T15:52:02.985Z,9.10
2018-07-16T15:53:35.048Z,9.00
2018-07-16T15:55:06.270Z,13.60
2018-07-16T15:56:37.778Z,9.20
2018-07-16T15:58:09.479Z,10.00
2018-07-16T15:59:40.998Z,11.00
2018-07-16T16:01:12.555Z,9.70
2018-07-16T16:02:44.109Z,10.80
2018-07-16T16:04:15.887Z,10.10
2018-07-16T16:05:47.365Z,10.80
2018-07-16T16:08:50.711Z,10.30
2018-07-16T16:11:53.610Z,12.60
2018-07-16T16:13:25.399Z,12.10
2018-07-16T16:14:57.523Z,11.40
2018-07-16T16:16:28.435Z,12.20
2018-07-16T16:18:00.083Z,10.50
2018-07-16T16:19:31.543Z,10.80
2018-07-16T16:22:35.021Z,9.90
2018-07-16T16:25:38.401Z,9.60
2018-07-16T16:27:09.522Z,9.80
2018-07-16T16:28:41.268Z,8.70
2018-07-16T16:30:12.663Z,7.40
2018-07-16T16:31:44.239Z,7.50
2018-07-16T16:33:15.828Z,7.00
2018-07-16T16:36:19.010Z,6.30
2018-07-16T16:39:22.415Z,6.80
2018-07-16T16:40:53.966Z,7.00
2018-07-16T16:43:58.081Z,7.30
2018-07-16T16:45:28.740Z,6.70
2018-07-16T16:47:00.115Z,6.40
2018-07-16T16:48:32.055Z,7.30
2018-07-16T16:50:03.291Z,6.90
2018-07-16T16:51:35.193Z,7.10
2018-07-16T16:53:06.462Z,6.80
2018-07-16T16:54:38.051Z,6.10
2018-07-16T16:56:09.788Z,6.10
2018-07-16T16:57:41.288Z,5.40
2018-07-16T16:59:12.817Z,4.30
2018-07-16T17:00:44.404Z,4.00
2018-07-16T17:02:15.989Z,4.70
2018-07-16T17:05:19.617Z,5.20
2018-07-16T17:06:50.816Z,4.20
2018-07-16T17:08:22.361Z,3.50
2018-07-16T17:09:53.929Z,4.20
2018-07-16T17:12:57.593Z,3.40
2018-07-16T17:16:00.278Z,5.30
2018-07-16T17:17:31.863Z,4.10
2018-07-16T17:19:03.663Z,6.50
2018-07-16T17:22:06.835Z,4.10
2018-07-16T17:23:38.261Z,5.40
2018-07-16T17:25:10.537Z,5.40
2018-07-16T17:26:47.362Z,6.00
2018-07-16T17:28:13.214Z,6.10
2018-07-16T17:29:44.560Z,4.80
2018-07-16T17:31:17.093Z,5.80
2018-07-16T17:34:19.319Z,4.80
2018-07-16T17:35:50.905Z,5.20
2018-07-16T17:37:22.501Z,4.90
2018-07-16T17:38:54.079Z,6.10
2018-07-16T17:40:25.688Z,5.20
2018-07-16T17:41:57.312Z,5.00
2018-07-16T17:43:28.940Z,4.10
2018-07-16T17:45:00.425Z,4.90
2018-07-16T17:46:32.012Z,5.20
2018-07-16T17:49:35.193Z,5.10
2018-07-16T17:51:06.770Z,6.10
2018-07-16T17:52:38.356Z,6.10
2018-07-16T17:54:09.941Z,5.10
2018-07-16T17:55:41.555Z,5.80
2018-07-16T17:57:13.112Z,5.20
2018-07-16T17:58:44.733Z,6.50
2018-07-16T18:00:16.307Z,5.80
2018-07-16T18:01:47.974Z,3.90
2018-07-16T18:03:19.654Z,4.00
2018-07-16T18:04:51.037Z,4.20
2018-07-16T18:06:22.621Z,4.60
2018-07-16T18:07:54.208Z,4.50
2018-07-16T18:09:25.794Z,5.00
2018-07-16T18:10:57.376Z,4.40
2018-07-16T18:12:28.960Z,5.30
2018-07-16T18:14:00.545Z,5.70
2018-07-16T18:15:32.129Z,6.90
2018-07-16T18:17:03.714Z,5.30
2018-07-16T18:18:35.307Z,5.80
2018-07-16T18:20:06.985Z,5.60
2018-07-16T18:21:38.467Z,5.00
2018-07-16T18:23:10.053Z,5.30
2018-07-16T18:24:41.637Z,5.40
2018-07-16T18:26:13.221Z,5.70
2018-07-16T18:27:44.838Z,5.70
2018-07-16T18:29:16.390Z,6.20
2018-07-16T18:30:47.974Z,9.60
2018-07-16T18:32:19.558Z,4.80
2018-07-16T18:33:51.449Z,4.50
2018-07-16T18:35:22.733Z,5.00
2018-07-16T18:36:54.311Z,5.30
2018-07-16T18:38:26.166Z,5.10
2018-07-16T18:41:29.113Z,6.20
2018-07-16T18:43:00.851Z,7.00
2018-07-16T18:44:32.405Z,5.70
2018-07-16T18:46:03.815Z,5.90
2018-07-16T18:47:35.400Z,6.00
2018-07-16T18:49:06.985Z,5.50
2018-07-16T18:50:38.569Z,6.10
2018-07-16T18:52:10.468Z,6.50
2018-07-16T18:53:41.735Z,6.00
2018-07-16T18:55:13.540Z,8.90
2018-07-16T18:56:45.024Z,6.50
2018-07-16T18:58:16.486Z,6.40
2018-07-16T18:59:48.110Z,7.10
2018-07-16T19:02:51.445Z,6.60
2018-07-16T19:04:22.821Z,7.40
2018-07-16T19:05:54.431Z,6.80
2018-07-16T19:07:25.988Z,7.00
2018-07-16T19:10:29.358Z,7.10
2018-07-16T19:13:32.325Z,6.50
2018-07-16T19:15:03.908Z,7.00
2018-07-16T19:16:35.592Z,7.10
2018-07-16T19:18:07.072Z,6.00
2018-07-16T19:19:38.655Z,6.90
2018-07-16T19:21:10.238Z,7.30
2018-07-16T19:22:41.820Z,7.10
2018-07-16T19:24:13.410Z,7.60
2018-07-16T19:25:45.191Z,10.10
2018-07-16T19:27:16.572Z,8.70
2018-07-16T19:28:48.153Z,7.40
2018-07-16T19:30:19.737Z,8.40
2018-07-16T19:31:51.319Z,6.90
2018-07-16T19:33:23.205Z,6.90
2018-07-16T19:34:54.586Z,8.60
2018-07-16T19:36:26.077Z,7.60
2018-07-16T19:37:57.649Z,7.20
2018-07-16T19:39:29.252Z,7.80
2018-07-16T19:41:01.120Z,8.80
2018-07-16T19:42:32.397Z,9.30
2018-07-16T19:44:03.978Z,8.70
2018-07-16T19:45:35.647Z,8.40
2018-07-16T19:47:07.142Z,8.00
2018-07-16T19:50:10.305Z,11.60
2018-07-16T19:51:41.886Z,12.50
2018-07-16T19:53:13.567Z,8.50
2018-07-16T19:54:45.050Z,7.80
2018-07-16T19:57:48.219Z,8.70
2018-07-16T19:59:19.791Z,11.10
2018-07-16T20:00:51.372Z,10.30
2018-07-16T20:02:22.952Z,10.30
2018-07-16T20:03:54.761Z,6.50
2018-07-16T20:05:26.116Z,7.90
2018-07-16T20:06:57.700Z,7.60
2018-07-16T20:08:29.280Z,10.20
2018-07-16T20:10:00.938Z,7.50
2018-07-16T20:11:32.533Z,9.70
2018-07-16T20:13:04.099Z,10.30
2018-07-16T20:14:35.592Z,8.40
2018-07-16T20:16:07.172Z,8.60
2018-07-16T20:17:38.752Z,11.00
2018-07-16T20:19:10.332Z,10.90
2018-07-16T20:20:41.912Z,8.00
2018-07-16T20:22:13.489Z,11.30
2018-07-16T20:23:45.134Z,13.90
2018-07-16T20:25:16.649Z,9.40
2018-07-16T20:26:48.237Z,11.10
2018-07-16T20:28:19.804Z,11.40
2018-07-16T20:29:51.483Z,12.40
2018-07-16T20:31:23.012Z,10.70
2018-07-16T20:32:54.844Z,9.70
2018-07-16T20:34:26.118Z,9.70
2018-07-16T20:35:57.696Z,9.90
2018-07-16T20:37:29.275Z,10.60
2018-07-16T20:39:00.852Z,8.70
2018-07-16T20:40:32.430Z,10.30
2018-07-16T20:42:04.009Z,11.10
2018-07-16T20:43:35.584Z,9.60
2018-07-16T20:45:07.162Z,8.30
2018-07-16T20:46:38.739Z,9.30
2018-07-16T20:48:10.421Z,9.30
2018-07-16T20:49:41.894Z,9.30
2018-07-16T20:51:13.470Z,12.60
2018-07-16T20:52:45.049Z,8.90
2018-07-16T20:54:16.624Z,8.50
2018-07-16T20:55:48.201Z,9.50
2018-07-16T20:57:19.778Z,8.20
2018-07-16T20:58:51.354Z,8.50
2018-07-16T21:00:22.931Z,9.00
2018-07-16T21:01:54.510Z,12.30
2018-07-16T21:03:26.145Z,11.20